sensor_id;sensor_type;location;lat;lon;timestamp;pressure;altitude;pressure_sealevel;temperature;humidity
59831;BME280;45711;50.108;13.712;2023-10-19T00:00:31;96820.81;;;3.31;79.08
59831;BME280;45711;50.108;13.712;2023-10-19T00:02:59;96821.38;;;3.33;79.77
59831;BME280;45711;50.108;13.712;2023-10-19T00:05:29;96819.00;;;3.41;80.12
59831;BME280;45711;50.108;13.712;2023-10-19T00:07:56;96816.66;;;3.50;79.57
59831;BME280;45711;50.108;13.712;2023-10-19T00:10:26;96814.28;;;3.48;81.15
59831;BME280;45711;50.108;13.712;2023-10-19T00:12:58;96803.16;;;3.51;80.77
59831;BME280;45711;50.108;13.712;2023-10-19T00:15:31;96796.31;;;3.61;80.19
59831;BME280;45711;50.108;13.712;2023-10-19T00:17:58;96794.22;;;3.68;80.21
59831;BME280;45711;50.108;13.712;2023-10-19T00:20:33;96797.41;;;3.70;80.62
59831;BME280;45711;50.108;13.712;2023-10-19T00:23:14;96792.38;;;3.73;80.94
59831;BME280;45711;50.108;13.712;2023-10-19T00:25:44;96785.22;;;3.74;81.22
59831;BME280;45711;50.108;13.712;2023-10-19T00:28:09;96781.78;;;3.73;80.93
59831;BME280;45711;50.108;13.712;2023-10-19T00:30:40;96779.69;;;3.75;81.19
59831;BME280;45711;50.108;13.712;2023-10-19T00:33:08;96779.69;;;3.75;80.82
59831;BME280;45711;50.108;13.712;2023-10-19T00:35:44;96778.63;;;3.76;82.02
59831;BME280;45711;50.108;13.712;2023-10-19T00:38:12;96778.63;;;3.76;82.14
59831;BME280;45711;50.108;13.712;2023-10-19T00:41:05;96785.50;;;3.57;81.97
59831;BME280;45711;50.108;13.712;2023-10-19T00:43:38;96778.63;;;3.66;82.05
59831;BME280;45711;50.108;13.712;2023-10-19T00:46:10;96770.13;;;3.64;82.46
59831;BME280;45711;50.108;13.712;2023-10-19T00:48:48;96769.34;;;3.74;81.95
59831;BME280;45711;50.108;13.712;2023-10-19T00:51:16;96770.47;;;3.88;82.45
59831;BME280;45711;50.108;13.712;2023-10-19T00:53:54;96759.59;;;3.85;82.83
59831;BME280;45711;50.108;13.712;2023-10-19T00:56:21;96766.47;;;3.81;83.17
59831;BME280;45711;50.108;13.712;2023-10-19T00:58:49;96767.03;;;3.98;81.94
59831;BME280;45711;50.108;13.712;2023-10-19T01:01:22;96771.78;;;3.96;81.47
59831;BME280;45711;50.108;13.712;2023-10-19T01:03:50;96777.59;;;4.13;82.13
59831;BME280;45711;50.108;13.712;2023-10-19T01:06:22;96774.97;;;4.23;81.63
59831;BME280;45711;50.108;13.712;2023-10-19T01:08:48;96765.69;;;4.21;81.07
59831;BME280;45711;50.108;13.712;2023-10-19T01:11:16;96763.59;;;4.08;82.66
59831;BME280;45711;50.108;13.712;2023-10-19T01:13:46;96761.47;;;4.15;82.36
59831;BME280;45711;50.108;13.712;2023-10-19T01:16:12;96762.28;;;4.10;83.42
59831;BME280;45711;50.108;13.712;2023-10-19T01:18:46;96756.97;;;4.15;84.23
59831;BME280;45711;50.108;13.712;2023-10-19T01:21:11;96753.00;;;4.08;84.50
59831;BME280;45711;50.108;13.712;2023-10-19T01:23:38;96758.53;;;4.21;85.84
59831;BME280;45711;50.108;13.712;2023-10-19T01:26:04;96740.00;;;4.21;84.86
59831;BME280;45711;50.108;13.712;2023-10-19T01:28:37;96734.44;;;4.38;85.00
59831;BME280;45711;50.108;13.712;2023-10-19T01:31:06;96711.94;;;4.36;84.55
59831;BME280;45711;50.108;13.712;2023-10-19T01:33:32;96708.22;;;4.42;83.49
59831;BME280;45711;50.108;13.712;2023-10-19T01:35:59;96705.28;;;4.43;84.05
59831;BME280;45711;50.108;13.712;2023-10-19T01:38:39;96697.84;;;4.50;83.22
59831;BME280;45711;50.108;13.712;2023-10-19T01:41:06;96656.78;;;4.48;84.22
59831;BME280;45711;50.108;13.712;2023-10-19T01:43:45;96628.94;;;4.61;84.75
59831;BME280;45711;50.108;13.712;2023-10-19T01:46:13;96628.97;;;4.56;85.96
59831;BME280;45711;50.108;13.712;2023-10-19T01:48:39;96627.34;;;4.65;85.86
59831;BME280;45711;50.108;13.712;2023-10-19T01:51:06;96646.97;;;5.58;83.25
59831;BME280;45711;50.108;13.712;2023-10-19T01:53:36;96620.53;;;5.03;84.27
59831;BME280;45711;50.108;13.712;2023-10-19T01:56:06;96631.66;;;5.05;85.57
59831;BME280;45711;50.108;13.712;2023-10-19T01:58:35;96642.28;;;5.00;85.11
59831;BME280;45711;50.108;13.712;2023-10-19T02:01:02;96668.13;;;5.28;85.06
59831;BME280;45711;50.108;13.712;2023-10-19T02:03:31;96655.69;;;5.24;85.14
59831;BME280;45711;50.108;13.712;2023-10-19T02:05:58;96648.13;;;5.02;85.62
59831;BME280;45711;50.108;13.712;2023-10-19T02:08:24;96647.66;;;4.85;86.18
59831;BME280;45711;50.108;13.712;2023-10-19T02:10:51;96646.09;;;4.73;87.46
59831;BME280;45711;50.108;13.712;2023-10-19T02:13:18;96641.09;;;4.72;89.26
59831;BME280;45711;50.108;13.712;2023-10-19T02:15:45;96635.53;;;4.68;89.05
59831;BME280;45711;50.108;13.712;2023-10-19T02:18:11;96623.63;;;4.71;89.74
59831;BME280;45711;50.108;13.712;2023-10-19T02:20:36;96611.63;;;4.78;88.47
59831;BME280;45711;50.108;13.712;2023-10-19T02:23:07;96613.47;;;4.83;88.93
59831;BME280;45711;50.108;13.712;2023-10-19T02:25:33;96604.19;;;4.86;88.87
59831;BME280;45711;50.108;13.712;2023-10-19T02:28:03;96607.94;;;4.79;91.17
59831;BME280;45711;50.108;13.712;2023-10-19T02:30:31;96604.47;;;4.84;91.48
59831;BME280;45711;50.108;13.712;2023-10-19T02:32:56;96616.31;;;4.97;90.83
59831;BME280;45711;50.108;13.712;2023-10-19T02:35:22;96597.28;;;4.90;91.63
59831;BME280;45711;50.108;13.712;2023-10-19T02:37:47;96596.19;;;4.91;90.82
59831;BME280;45711;50.108;13.712;2023-10-19T02:40:13;96591.94;;;4.95;91.29
59831;BME280;45711;50.108;13.712;2023-10-19T02:42:45;96581.91;;;4.87;92.31
59831;BME280;45711;50.108;13.712;2023-10-19T02:45:13;96585.91;;;4.84;93.46
59831;BME280;45711;50.108;13.712;2023-10-19T02:47:42;96586.38;;;4.91;94.11
59831;BME280;45711;50.108;13.712;2023-10-19T02:50:09;96578.97;;;4.93;93.75
59831;BME280;45711;50.108;13.712;2023-10-19T02:52:38;96577.03;;;5.04;93.38
59831;BME280;45711;50.108;13.712;2023-10-19T02:55:04;96586.88;;;4.98;92.94
59831;BME280;45711;50.108;13.712;2023-10-19T02:57:30;96584.53;;;4.92;94.16
59831;BME280;45711;50.108;13.712;2023-10-19T02:59:56;96579.22;;;4.97;93.27
59831;BME280;45711;50.108;13.712;2023-10-19T03:02:23;96575.44;;;5.03;93.94
59831;BME280;45711;50.108;13.712;2023-10-19T03:04:53;96572.00;;;5.02;94.45
59831;BME280;45711;50.108;13.712;2023-10-19T03:07:18;96564.88;;;4.98;95.31
59831;BME280;45711;50.108;13.712;2023-10-19T03:09:44;96555.81;;;5.04;95.17
59831;BME280;45711;50.108;13.712;2023-10-19T03:12:19;96549.13;;;5.12;94.92
59831;BME280;45711;50.108;13.712;2023-10-19T03:14:45;96550.41;;;5.19;95.12
59831;BME280;45711;50.108;13.712;2023-10-19T03:17:13;96545.56;;;5.32;93.00
59831;BME280;45711;50.108;13.712;2023-10-19T03:19:39;96541.47;;;5.44;92.95
59831;BME280;45711;50.108;13.712;2023-10-19T03:22:05;96539.69;;;5.35;92.04
59831;BME280;45711;50.108;13.712;2023-10-19T03:24:32;96544.78;;;5.26;93.61
59831;BME280;45711;50.108;13.712;2023-10-19T03:27:01;96547.22;;;5.22;93.97
59831;BME280;45711;50.108;13.712;2023-10-19T03:29:26;96556.31;;;5.11;95.56
59831;BME280;45711;50.108;13.712;2023-10-19T03:31:57;96557.88;;;5.12;97.26
59831;BME280;45711;50.108;13.712;2023-10-19T03:34:24;96555.44;;;5.21;95.22
59831;BME280;45711;50.108;13.712;2023-10-19T03:36:50;96562.06;;;5.23;95.42
59831;BME280;45711;50.108;13.712;2023-10-19T03:39:21;96559.91;;;5.25;95.43
59831;BME280;45711;50.108;13.712;2023-10-19T03:41:47;96562.09;;;5.18;96.13
59831;BME280;45711;50.108;13.712;2023-10-19T03:44:16;96560.44;;;5.27;95.80
59831;BME280;45711;50.108;13.712;2023-10-19T03:46:50;96563.50;;;5.40;95.24
59831;BME280;45711;50.108;13.712;2023-10-19T03:49:19;96538.25;;;5.47;93.62
59831;BME280;45711;50.108;13.712;2023-10-19T03:51:45;96548.03;;;5.18;95.10
59831;BME280;45711;50.108;13.712;2023-10-19T03:54:30;96542.41;;;5.24;94.30
59831;BME280;45711;50.108;13.712;2023-10-19T03:56:58;96534.56;;;5.09;94.99
59831;BME280;45711;50.108;13.712;2023-10-19T03:59:27;96547.59;;;5.06;96.25
59831;BME280;45711;50.108;13.712;2023-10-19T04:01:59;96543.09;;;5.06;95.68
59831;BME280;45711;50.108;13.712;2023-10-19T04:04:25;96536.44;;;5.09;96.31
59831;BME280;45711;50.108;13.712;2023-10-19T04:06:51;96542.53;;;5.09;95.56
59831;BME280;45711;50.108;13.712;2023-10-19T04:09:23;96534.75;;;5.23;96.26
59831;BME280;45711;50.108;13.712;2023-10-19T04:11:50;96531.81;;;5.24;94.95
59831;BME280;45711;50.108;13.712;2023-10-19T04:14:17;96527.59;;;5.23;95.46
59831;BME280;45711;50.108;13.712;2023-10-19T04:16:43;96524.66;;;5.25;95.66
59831;BME280;45711;50.108;13.712;2023-10-19T04:19:09;96509.56;;;5.20;96.30
59831;BME280;45711;50.108;13.712;2023-10-19T04:21:35;96504.22;;;5.25;96.44
59831;BME280;45711;50.108;13.712;2023-10-19T04:24:04;96512.25;;;5.15;95.99
59831;BME280;45711;50.108;13.712;2023-10-19T04:26:32;96496.25;;;5.25;96.34
59831;BME280;45711;50.108;13.712;2023-10-19T04:29:04;96491.75;;;5.26;96.97
59831;BME280;45711;50.108;13.712;2023-10-19T04:31:35;96490.13;;;5.30;97.21
59831;BME280;45711;50.108;13.712;2023-10-19T04:34:02;96493.09;;;5.23;96.84
59831;BME280;45711;50.108;13.712;2023-10-19T04:36:32;96484.50;;;5.37;97.65
59831;BME280;45711;50.108;13.712;2023-10-19T04:38:59;96496.19;;;5.36;96.99
59831;BME280;45711;50.108;13.712;2023-10-19T04:41:25;96498.13;;;5.25;98.20
59831;BME280;45711;50.108;13.712;2023-10-19T04:43:54;96505.47;;;5.33;99.54
59831;BME280;45711;50.108;13.712;2023-10-19T04:46:24;96496.19;;;5.36;99.27
59831;BME280;45711;50.108;13.712;2023-10-19T04:48:49;96489.28;;;5.35;98.86
59831;BME280;45711;50.108;13.712;2023-10-19T04:51:15;96481.06;;;5.31;99.46
59831;BME280;45711;50.108;13.712;2023-10-19T04:53:42;96465.63;;;5.38;98.94
59831;BME280;45711;50.108;13.712;2023-10-19T04:56:08;96461.13;;;5.39;99.10
59831;BME280;45711;50.108;13.712;2023-10-19T04:58:34;96466.38;;;5.44;98.62
59831;BME280;45711;50.108;13.712;2023-10-19T05:01:00;96461.69;;;5.36;99.35
59831;BME280;45711;50.108;13.712;2023-10-19T05:03:30;96451.91;;;5.31;100.00
59831;BME280;45711;50.108;13.712;2023-10-19T05:05:55;96442.84;;;5.37;100.00
59831;BME280;45711;50.108;13.712;2023-10-19T05:08:24;96430.59;;;5.41;100.00
59831;BME280;45711;50.108;13.712;2023-10-19T05:10:53;96435.56;;;5.48;98.77
59831;BME280;45711;50.108;13.712;2023-10-19T05:13:25;96433.97;;;5.47;98.99
59831;BME280;45711;50.108;13.712;2023-10-19T05:15:51;96437.53;;;5.37;99.87
59831;BME280;45711;50.108;13.712;2023-10-19T05:18:16;96439.41;;;5.37;99.15
59831;BME280;45711;50.108;13.712;2023-10-19T05:20:43;96430.66;;;5.36;99.20
59831;BME280;45711;50.108;13.712;2023-10-19T05:23:09;96432.00;;;5.34;100.00
59831;BME280;45711;50.108;13.712;2023-10-19T05:25:35;96434.16;;;5.26;100.00
59831;BME280;45711;50.108;13.712;2023-10-19T05:28:03;96440.59;;;5.20;100.00
59831;BME280;45711;50.108;13.712;2023-10-19T05:30:29;96436.75;;;5.37;100.00
59831;BME280;45711;50.108;13.712;2023-10-19T05:32:55;96429.81;;;5.41;99.54
59831;BME280;45711;50.108;13.712;2023-10-19T05:35:21;96425.00;;;5.43;100.00
59831;BME280;45711;50.108;13.712;2023-10-19T05:37:53;96421.31;;;5.39;98.94
59831;BME280;45711;50.108;13.712;2023-10-19T05:40:18;96425.59;;;5.35;99.60
59831;BME280;45711;50.108;13.712;2023-10-19T05:42:44;96426.53;;;5.49;99.00
59831;BME280;45711;50.108;13.712;2023-10-19T05:45:11;96429.94;;;5.54;98.92
59831;BME280;45711;50.108;13.712;2023-10-19T05:47:38;96420.09;;;5.55;97.81
59831;BME280;45711;50.108;13.712;2023-10-19T05:50:04;96439.34;;;5.66;97.26
59831;BME280;45711;50.108;13.712;2023-10-19T05:52:30;96441.19;;;5.94;96.16
59831;BME280;45711;50.108;13.712;2023-10-19T05:54:57;96436.38;;;5.72;95.82
59831;BME280;45711;50.108;13.712;2023-10-19T05:57:22;96442.16;;;5.74;96.38
59831;BME280;45711;50.108;13.712;2023-10-19T05:59:49;96447.50;;;5.98;94.66
59831;BME280;45711;50.108;13.712;2023-10-19T06:02:15;96442.66;;;6.06;93.43
59831;BME280;45711;50.108;13.712;2023-10-19T06:04:40;96443.28;;;5.97;92.75
59831;BME280;45711;50.108;13.712;2023-10-19T06:07:06;96435.22;;;5.78;94.04
59831;BME280;45711;50.108;13.712;2023-10-19T06:09:31;96441.44;;;5.69;95.60
59831;BME280;45711;50.108;13.712;2023-10-19T06:11:58;96440.72;;;5.63;96.79
59831;BME280;45711;50.108;13.712;2023-10-19T06:14:24;96444.22;;;5.59;98.16
59831;BME280;45711;50.108;13.712;2023-10-19T06:16:49;96445.72;;;5.65;97.71
59831;BME280;45711;50.108;13.712;2023-10-19T06:19:16;96451.13;;;5.84;97.06
59831;BME280;45711;50.108;13.712;2023-10-19T06:21:41;96459.63;;;5.80;96.75
59831;BME280;45711;50.108;13.712;2023-10-19T06:24:07;96458.06;;;5.79;97.46
59831;BME280;45711;50.108;13.712;2023-10-19T06:26:33;96465.78;;;5.76;96.87
59831;BME280;45711;50.108;13.712;2023-10-19T06:29:00;96466.59;;;5.76;97.80
59831;BME280;45711;50.108;13.712;2023-10-19T06:31:26;96471.66;;;5.73;96.41
59831;BME280;45711;50.108;13.712;2023-10-19T06:33:53;96464.94;;;5.80;97.71
59831;BME280;45711;50.108;13.712;2023-10-19T06:36:19;96459.00;;;5.89;97.21
59831;BME280;45711;50.108;13.712;2023-10-19T06:38:45;96446.06;;;5.82;96.74
59831;BME280;45711;50.108;13.712;2023-10-19T06:41:11;96439.47;;;5.79;96.63
59831;BME280;45711;50.108;13.712;2023-10-19T06:43:37;96450.09;;;5.79;96.97
59831;BME280;45711;50.108;13.712;2023-10-19T06:46:04;96446.97;;;5.96;96.16
59831;BME280;45711;50.108;13.712;2023-10-19T06:48:29;96438.41;;;6.04;95.12
59831;BME280;45711;50.108;13.712;2023-10-19T06:50:57;96429.00;;;5.93;95.64
59831;BME280;45711;50.108;13.712;2023-10-19T06:53:23;96426.13;;;5.85;96.61
59831;BME280;45711;50.108;13.712;2023-10-19T06:55:49;96424.47;;;5.94;96.85
59831;BME280;45711;50.108;13.712;2023-10-19T06:58:14;96418.94;;;6.09;96.14
59831;BME280;45711;50.108;13.712;2023-10-19T07:00:40;96414.56;;;5.99;95.95
59831;BME280;45711;50.108;13.712;2023-10-19T07:03:11;96418.84;;;5.95;97.17
59831;BME280;45711;50.108;13.712;2023-10-19T07:05:37;96435.75;;;6.04;96.68
59831;BME280;45711;50.108;13.712;2023-10-19T07:08:03;96438.41;;;6.04;96.86
59831;BME280;45711;50.108;13.712;2023-10-19T07:10:32;96451.19;;;6.02;97.26
59831;BME280;45711;50.108;13.712;2023-10-19T07:12:59;96432.13;;;6.19;95.55
59831;BME280;45711;50.108;13.712;2023-10-19T07:15:25;96426.56;;;6.16;96.05
59831;BME280;45711;50.108;13.712;2023-10-19T07:17:52;96442.44;;;6.02;95.43
59831;BME280;45711;50.108;13.712;2023-10-19T07:20:20;96445.16;;;6.16;95.87
59831;BME280;45711;50.108;13.712;2023-10-19T07:22:54;96439.56;;;6.17;95.79
59831;BME280;45711;50.108;13.712;2023-10-19T07:25:20;96444.53;;;6.43;93.65
59831;BME280;45711;50.108;13.712;2023-10-19T07:27:47;96432.72;;;6.87;90.80
59831;BME280;45711;50.108;13.712;2023-10-19T07:30:13;96437.78;;;6.50;91.61
59831;BME280;45711;50.108;13.712;2023-10-19T07:32:40;96430.59;;;6.51;90.72
59831;BME280;45711;50.108;13.712;2023-10-19T07:35:06;96426.44;;;6.26;91.98
59831;BME280;45711;50.108;13.712;2023-10-19T07:37:33;96432.91;;;6.20;92.98
59831;BME280;45711;50.108;13.712;2023-10-19T07:39:59;96437.91;;;6.02;94.33
59831;BME280;45711;50.108;13.712;2023-10-19T07:42:24;96433.75;;;6.15;94.11
59831;BME280;45711;50.108;13.712;2023-10-19T07:44:51;96423.00;;;6.63;91.99
59831;BME280;45711;50.108;13.712;2023-10-19T07:47:16;96418.97;;;6.47;91.56
59831;BME280;45711;50.108;13.712;2023-10-19T07:49:42;96421.75;;;6.18;93.26
59831;BME280;45711;50.108;13.712;2023-10-19T07:52:08;96417.31;;;6.13;95.01
59831;BME280;45711;50.108;13.712;2023-10-19T07:54:37;96407.84;;;6.26;95.19
59831;BME280;45711;50.108;13.712;2023-10-19T07:57:03;96413.59;;;6.14;95.27
59831;BME280;45711;50.108;13.712;2023-10-19T07:59:31;96405.75;;;6.04;96.37
59831;BME280;45711;50.108;13.712;2023-10-19T08:01:57;96417.38;;;6.08;95.98
59831;BME280;45711;50.108;13.712;2023-10-19T08:04:22;96402.97;;;6.14;96.33
59831;BME280;45711;50.108;13.712;2023-10-19T08:06:48;96401.38;;;6.51;95.66
59831;BME280;45711;50.108;13.712;2023-10-19T08:09:13;96393.03;;;6.39;95.29
59831;BME280;45711;50.108;13.712;2023-10-19T08:11:45;96380.28;;;6.41;95.30
59831;BME280;45711;50.108;13.712;2023-10-19T08:14:11;96376.31;;;6.38;95.43
59831;BME280;45711;50.108;13.712;2023-10-19T08:16:36;96377.16;;;6.52;95.47
59831;BME280;45711;50.108;13.712;2023-10-19T08:19:02;96376.66;;;6.50;95.37
59831;BME280;45711;50.108;13.712;2023-10-19T08:21:27;96379.19;;;6.42;95.90
59831;BME280;45711;50.108;13.712;2023-10-19T08:23:54;96389.97;;;6.50;97.45
59831;BME280;45711;50.108;13.712;2023-10-19T08:26:21;96398.25;;;6.82;95.20
59831;BME280;45711;50.108;13.712;2023-10-19T08:28:48;96391.25;;;6.86;93.62
59831;BME280;45711;50.108;13.712;2023-10-19T08:31:15;96392.94;;;6.82;92.89
59831;BME280;45711;50.108;13.712;2023-10-19T08:33:40;96393.84;;;6.91;92.95
59831;BME280;45711;50.108;13.712;2023-10-19T08:36:07;96389.47;;;6.81;93.10
59831;BME280;45711;50.108;13.712;2023-10-19T08:38:40;96394.91;;;6.90;93.50
59831;BME280;45711;50.108;13.712;2023-10-19T08:41:06;96393.13;;;6.85;94.27
59831;BME280;45711;50.108;13.712;2023-10-19T08:43:32;96391.19;;;6.91;94.18
59831;BME280;45711;50.108;13.712;2023-10-19T08:46:00;96383.72;;;6.93;93.15
59831;BME280;45711;50.108;13.712;2023-10-19T08:48:26;96375.09;;;6.82;94.12
59831;BME280;45711;50.108;13.712;2023-10-19T08:50:52;96375.44;;;7.08;92.15
59831;BME280;45711;50.108;13.712;2023-10-19T08:53:18;96377.34;;;7.21;93.88
59831;BME280;45711;50.108;13.712;2023-10-19T08:55:45;96377.75;;;7.28;93.92
59831;BME280;45711;50.108;13.712;2023-10-19T08:58:13;96370.94;;;7.22;93.41
59831;BME280;45711;50.108;13.712;2023-10-19T09:00:45;96362.88;;;7.27;92.71
59831;BME280;45711;50.108;13.712;2023-10-19T09:03:14;96357.16;;;7.48;90.63
59831;BME280;45711;50.108;13.712;2023-10-19T09:05:42;96362.28;;;7.30;91.05
59831;BME280;45711;50.108;13.712;2023-10-19T09:08:08;96367.13;;;7.42;89.63
59831;BME280;45711;50.108;13.712;2023-10-19T09:10:35;96367.44;;;7.41;90.62
59831;BME280;45711;50.108;13.712;2023-10-19T09:13:02;96377.56;;;7.39;92.22
59831;BME280;45711;50.108;13.712;2023-10-19T09:15:29;96373.63;;;7.50;92.48
59831;BME280;45711;50.108;13.712;2023-10-19T09:18:12;96379.16;;;7.67;91.68
59831;BME280;45711;50.108;13.712;2023-10-19T09:20:42;96365.03;;;7.80;89.59
59831;BME280;45711;50.108;13.712;2023-10-19T09:23:18;96354.97;;;7.77;88.63
59831;BME280;45711;50.108;13.712;2023-10-19T09:25:44;96347.28;;;7.90;86.93
59831;BME280;45711;50.108;13.712;2023-10-19T09:28:09;96353.69;;;7.89;88.50
59831;BME280;45711;50.108;13.712;2023-10-19T09:30:38;96342.94;;;7.94;85.19
59831;BME280;45711;50.108;13.712;2023-10-19T09:33:04;96349.44;;;7.88;87.15
59831;BME280;45711;50.108;13.712;2023-10-19T09:35:30;96353.38;;;7.90;89.98
59831;BME280;45711;50.108;13.712;2023-10-19T09:37:58;96340.00;;;8.18;85.84
59831;BME280;45711;50.108;13.712;2023-10-19T09:40:24;96348.63;;;8.01;88.21
59831;BME280;45711;50.108;13.712;2023-10-19T09:42:53;96349.44;;;7.88;89.03
59831;BME280;45711;50.108;13.712;2023-10-19T09:45:25;96338.53;;;8.12;83.41
59831;BME280;45711;50.108;13.712;2023-10-19T09:47:55;96334.69;;;8.04;86.59
59831;BME280;45711;50.108;13.712;2023-10-19T09:50:21;96335.03;;;7.89;88.01
59831;BME280;45711;50.108;13.712;2023-10-19T09:52:48;96321.97;;;8.01;82.79
59831;BME280;45711;50.108;13.712;2023-10-19T09:55:22;96324.78;;;8.18;83.92
59831;BME280;45711;50.108;13.712;2023-10-19T09:57:54;96331.44;;;8.07;86.77
59831;BME280;45711;50.108;13.712;2023-10-19T10:00:21;96327.44;;;8.32;83.44
59831;BME280;45711;50.108;13.712;2023-10-19T10:02:50;96329.47;;;8.35;84.95
59831;BME280;45711;50.108;13.712;2023-10-19T10:05:47;96330.13;;;8.54;82.95
59831;BME280;45711;50.108;13.712;2023-10-19T10:08:30;96349.13;;;8.39;86.74
59831;BME280;45711;50.108;13.712;2023-10-19T10:10:57;96335.94;;;8.56;84.90
59831;BME280;45711;50.108;13.712;2023-10-19T10:13:38;96333.44;;;8.60;82.05
59831;BME280;45711;50.108;13.712;2023-10-19T10:16:06;96328.28;;;8.64;84.25
59831;BME280;45711;50.108;13.712;2023-10-19T10:18:32;96324.53;;;8.42;84.97
59831;BME280;45711;50.108;13.712;2023-10-19T10:21:11;96319.13;;;8.34;85.25
59831;BME280;45711;50.108;13.712;2023-10-19T10:23:41;96321.09;;;8.42;85.00
59831;BME280;45711;50.108;13.712;2023-10-19T10:26:12;96302.19;;;8.52;81.19
59831;BME280;45711;50.108;13.712;2023-10-19T10:28:39;96299.81;;;8.50;81.62
59831;BME280;45711;50.108;13.712;2023-10-19T10:31:13;96297.25;;;8.68;80.23
59831;BME280;45711;50.108;13.712;2023-10-19T10:33:40;96320.63;;;8.62;84.55
59831;BME280;45711;50.108;13.712;2023-10-19T10:36:06;96314.31;;;8.58;85.36
59831;BME280;45711;50.108;13.712;2023-10-19T10:38:33;96317.31;;;8.65;86.72
59831;BME280;45711;50.108;13.712;2023-10-19T10:41:00;96296.78;;;8.66;84.40
59831;BME280;45711;50.108;13.712;2023-10-19T10:43:31;96304.72;;;8.57;85.67
59831;BME280;45711;50.108;13.712;2023-10-19T10:46:04;96301.25;;;8.56;85.56
59831;BME280;45711;50.108;13.712;2023-10-19T10:48:29;96303.16;;;8.56;85.74
59831;BME280;45711;50.108;13.712;2023-10-19T10:50:55;96292.97;;;8.58;83.95
59831;BME280;45711;50.108;13.712;2023-10-19T10:53:23;96292.72;;;8.68;84.84
59831;BME280;45711;50.108;13.712;2023-10-19T10:55:52;96291.81;;;8.73;84.82
59831;BME280;45711;50.108;13.712;2023-10-19T10:58:18;96277.19;;;8.70;84.48
59831;BME280;45711;50.108;13.712;2023-10-19T11:00:46;96270.41;;;8.64;82.96
59831;BME280;45711;50.108;13.712;2023-10-19T11:03:20;96261.06;;;8.75;82.35
59831;BME280;45711;50.108;13.712;2023-10-19T11:05:47;96268.63;;;8.82;82.03
59831;BME280;45711;50.108;13.712;2023-10-19T11:08:13;96265.63;;;8.84;81.23
59831;BME280;45711;50.108;13.712;2023-10-19T11:10:41;96268.84;;;8.94;80.01
59831;BME280;45711;50.108;13.712;2023-10-19T11:13:12;96257.34;;;8.85;76.77
59831;BME280;45711;50.108;13.712;2023-10-19T11:15:39;96269.16;;;8.93;81.12
59831;BME280;45711;50.108;13.712;2023-10-19T11:18:28;96267.25;;;8.85;81.97
59831;BME280;45711;50.108;13.712;2023-10-19T11:20:54;96262.81;;;8.80;80.27
59831;BME280;45711;50.108;13.712;2023-10-19T11:23:19;96274.59;;;8.88;83.67
59831;BME280;45711;50.108;13.712;2023-10-19T11:25:45;96269.91;;;8.85;83.89
59831;BME280;45711;50.108;13.712;2023-10-19T11:28:17;96251.84;;;8.81;76.85
59831;BME280;45711;50.108;13.712;2023-10-19T11:30:44;96236.03;;;8.94;74.75
59831;BME280;45711;50.108;13.712;2023-10-19T11:33:15;96256.09;;;8.91;77.98
59831;BME280;45711;50.108;13.712;2023-10-19T11:35:43;96257.56;;;8.97;80.74
59831;BME280;45711;50.108;13.712;2023-10-19T11:38:09;96260.06;;;8.94;82.41
59831;BME280;45711;50.108;13.712;2023-10-19T11:40:34;96252.97;;;8.89;81.45
59831;BME280;45711;50.108;13.712;2023-10-19T11:43:00;96258.59;;;8.88;83.44
59831;BME280;45711;50.108;13.712;2023-10-19T11:45:26;96257.69;;;8.92;84.12
59831;BME280;45711;50.108;13.712;2023-10-19T11:47:52;96248.78;;;8.97;83.47
59831;BME280;45711;50.108;13.712;2023-10-19T11:50:19;96249.25;;;8.99;84.46
59831;BME280;45711;50.108;13.712;2023-10-19T11:52:46;96253.00;;;8.98;83.36
59831;BME280;45711;50.108;13.712;2023-10-19T11:55:12;96258.22;;;9.03;84.41
59831;BME280;45711;50.108;13.712;2023-10-19T11:57:39;96254.16;;;9.05;84.64
59831;BME280;45711;50.108;13.712;2023-10-19T12:00:06;96238.91;;;9.06;83.09
59831;BME280;45711;50.108;13.712;2023-10-19T12:02:35;96229.84;;;9.16;81.13
59831;BME280;45711;50.108;13.712;2023-10-19T12:05:02;96227.63;;;9.18;82.98
59831;BME280;45711;50.108;13.712;2023-10-19T12:07:29;96200.16;;;9.09;78.38
59831;BME280;45711;50.108;13.712;2023-10-19T12:09:55;96213.22;;;9.19;82.93
59831;BME280;45711;50.108;13.712;2023-10-19T12:12:21;96211.16;;;9.16;81.88
59831;BME280;45711;50.108;13.712;2023-10-19T12:14:47;96202.66;;;9.14;81.82
59831;BME280;45711;50.108;13.712;2023-10-19T12:17:13;96209.72;;;9.18;81.25
59831;BME280;45711;50.108;13.712;2023-10-19T12:19:38;96204.09;;;9.11;80.71
59831;BME280;45711;50.108;13.712;2023-10-19T12:22:04;96204.09;;;9.20;82.84
59831;BME280;45711;50.108;13.712;2023-10-19T12:24:31;96202.34;;;9.06;80.21
59831;BME280;45711;50.108;13.712;2023-10-19T12:26:56;96200.00;;;9.22;80.56
59831;BME280;45711;50.108;13.712;2023-10-19T12:29:22;96186.50;;;9.10;79.94
59831;BME280;45711;50.108;13.712;2023-10-19T12:31:48;96190.94;;;9.32;82.04
59831;BME280;45711;50.108;13.712;2023-10-19T12:34:13;96184.78;;;9.23;80.41
59831;BME280;45711;50.108;13.712;2023-10-19T12:36:39;96174.78;;;9.37;78.17
59831;BME280;45711;50.108;13.712;2023-10-19T12:39:06;96170.22;;;9.38;80.43
59831;BME280;45711;50.108;13.712;2023-10-19T12:41:33;96173.66;;;9.21;78.68
59831;BME280;45711;50.108;13.712;2023-10-19T12:43:59;96176.00;;;9.22;80.65
59831;BME280;45711;50.108;13.712;2023-10-19T12:46:33;96171.28;;;9.19;79.69
59831;BME280;45711;50.108;13.712;2023-10-19T12:49:03;96165.97;;;9.19;79.81
59831;BME280;45711;50.108;13.712;2023-10-19T12:51:29;96164.84;;;9.20;79.59
59831;BME280;45711;50.108;13.712;2023-10-19T12:53:55;96149.31;;;9.22;76.52
59831;BME280;45711;50.108;13.712;2023-10-19T12:56:22;96167.22;;;9.30;81.27
59831;BME280;45711;50.108;13.712;2023-10-19T12:58:55;96163.91;;;9.25;79.58
59831;BME280;45711;50.108;13.712;2023-10-19T13:01:21;96166.91;;;9.32;81.37
59831;BME280;45711;50.108;13.712;2023-10-19T13:03:47;96171.94;;;9.34;80.29